createdAt,value
2022-09-24T00:01:41.955Z,93.27
2022-09-24T00:04:11.850Z,93.95
2022-09-24T00:06:42.009Z,93.71
2022-09-24T00:09:10.303Z,93.93
2022-09-24T00:11:38.906Z,94.26
2022-09-24T00:14:08.769Z,94.42
2022-09-24T00:16:36.712Z,94.18
2022-09-24T00:19:05.186Z,93.91
2022-09-24T00:21:34.735Z,93.78
2022-09-24T00:24:03.596Z,93.50
2022-09-24T00:26:48.711Z,93.28
2022-09-24T00:29:19.765Z,94.33
2022-09-24T00:31:47.907Z,94.60
2022-09-24T00:34:15.898Z,95.22
2022-09-24T00:36:44.899Z,95.41
2022-09-24T00:39:12.508Z,95.32
2022-09-24T00:41:47.277Z,95.44
2022-09-24T00:44:46.615Z,95.22
2022-09-24T00:47:15.712Z,95.73
2022-09-24T00:49:43.621Z,95.42
2022-09-24T00:52:11.285Z,94.68
2022-09-24T00:54:39.494Z,94.21
2022-09-24T00:57:07.353Z,94.02
2022-09-24T00:59:36.709Z,94.08
2022-09-24T01:02:06.575Z,93.77
2022-09-24T01:04:34.235Z,93.98
2022-09-24T01:07:02.343Z,94.14
2022-09-24T01:09:30.129Z,93.88
2022-09-24T01:12:04.229Z,93.50
2022-09-24T01:14:41.259Z,93.70
2022-09-24T01:17:19.020Z,93.38
2022-09-24T01:20:12.132Z,92.95
2022-09-24T01:22:50.693Z,92.91
2022-09-24T01:25:21.202Z,93.07
2022-09-24T01:28:04.783Z,92.52
2022-09-24T01:30:42.349Z,92.94
2022-09-24T01:33:13.690Z,93.04
2022-09-24T01:35:44.010Z,93.52
2022-09-24T01:38:15.479Z,93.30
2022-09-24T01:40:43.573Z,92.97
2022-09-24T01:43:13.012Z,93.59
2022-09-24T01:45:42.731Z,94.22
2022-09-24T01:48:11.252Z,93.74
2022-09-24T01:50:41.917Z,94.29
2022-09-24T01:53:12.519Z,94.40
2022-09-24T01:55:44.900Z,94.66
2022-09-24T01:58:16.819Z,96.10
2022-09-24T02:00:48.862Z,96.27
2022-09-24T02:03:18.453Z,96.42
2022-09-24T02:05:50.443Z,96.74
2022-09-24T02:08:20.303Z,97.15
2022-09-24T02:10:54.876Z,96.91
2022-09-24T02:13:24.625Z,96.99
2022-09-24T02:15:56.579Z,98.41
2022-09-24T02:18:28.660Z,97.62
2022-09-24T02:20:56.535Z,98.13
2022-09-24T02:23:24.429Z,97.98
2022-09-24T02:25:55.262Z,99.32
2022-09-24T02:28:22.977Z,100.00
2022-09-24T02:30:55.027Z,100.00
2022-09-24T02:33:41.452Z,100.00
2022-09-24T02:36:09.046Z,100.00
2022-09-24T02:38:37.096Z,100.00
2022-09-24T02:41:08.117Z,100.00
2022-09-24T02:43:36.388Z,100.00
2022-09-24T02:46:05.537Z,100.00
2022-09-24T02:48:33.126Z,100.00
2022-09-24T02:51:01.270Z,100.00
2022-09-24T02:53:28.802Z,100.00
2022-09-24T02:55:56.450Z,100.00
2022-09-24T02:58:25.218Z,100.00
2022-09-24T03:00:53.686Z,100.00
2022-09-24T03:03:22.975Z,99.76
2022-09-24T03:05:53.173Z,100.00
2022-09-24T03:08:20.983Z,100.00
2022-09-24T03:10:49.462Z,100.00
2022-09-24T03:13:17.997Z,100.00
2022-09-24T03:15:46.329Z,100.00
2022-09-24T03:18:14.668Z,100.00
2022-09-24T03:20:43.663Z,100.00
2022-09-24T03:23:11.253Z,100.00
2022-09-24T03:25:38.856Z,100.00
2022-09-24T03:28:06.467Z,100.00
2022-09-24T03:30:51.581Z,100.00
2022-09-24T03:33:19.146Z,100.00
2022-09-24T03:35:48.058Z,100.00
2022-09-24T03:38:15.689Z,100.00
2022-09-24T03:40:43.327Z,100.00
2022-09-24T03:43:10.952Z,100.00
2022-09-24T03:45:38.683Z,100.00
2022-09-24T03:48:06.543Z,100.00
2022-09-24T03:50:37.106Z,100.00
2022-09-24T03:53:06.176Z,100.00
2022-09-24T03:55:33.801Z,100.00
2022-09-24T03:58:01.457Z,100.00
2022-09-24T04:00:29.106Z,100.00
2022-09-24T04:02:56.700Z,100.00
2022-09-24T04:05:27.171Z,100.00
2022-09-24T04:07:54.751Z,100.00
2022-09-24T04:10:25.516Z,100.00
2022-09-24T04:12:53.455Z,100.00
2022-09-24T04:15:21.901Z,100.00
2022-09-24T04:17:52.062Z,100.00
2022-09-24T04:20:22.753Z,100.00
2022-09-24T04:22:50.766Z,100.00
2022-09-24T04:25:18.809Z,100.00
2022-09-24T04:27:47.935Z,100.00
2022-09-24T04:30:16.140Z,100.00
2022-09-24T04:32:43.828Z,100.00
2022-09-24T04:35:11.618Z,100.00
2022-09-24T04:37:39.241Z,100.00
2022-09-24T04:40:12.535Z,100.00
2022-09-24T04:42:40.625Z,100.00
2022-09-24T04:45:11.659Z,100.00
2022-09-24T04:47:40.779Z,100.00
2022-09-24T04:50:11.307Z,100.00
2022-09-24T04:52:38.984Z,100.00
2022-09-24T04:55:07.880Z,100.00
2022-09-24T04:57:36.334Z,100.00
2022-09-24T05:00:05.898Z,100.00
2022-09-24T05:02:35.060Z,100.00
2022-09-24T05:05:03.241Z,100.00
2022-09-24T05:07:30.796Z,100.00
2022-09-24T05:09:58.352Z,100.00
2022-09-24T05:12:25.906Z,100.00
2022-09-24T05:14:53.478Z,100.00
2022-09-24T05:17:21.463Z,100.00
2022-09-24T05:19:50.430Z,100.00
2022-09-24T05:22:18.105Z,100.00
2022-09-24T05:24:45.773Z,100.00
2022-09-24T05:27:12.381Z,100.00
2022-09-24T05:29:40.747Z,100.00
2022-09-24T05:32:09.701Z,100.00
2022-09-24T05:34:37.391Z,100.00
2022-09-24T05:37:06.741Z,100.00
2022-09-24T05:39:34.532Z,100.00
2022-09-24T05:42:04.141Z,100.00
2022-09-24T05:44:31.815Z,100.00
2022-09-24T05:46:59.745Z,100.00
2022-09-24T05:49:27.460Z,100.00
2022-09-24T05:51:55.068Z,100.00
2022-09-24T05:54:24.125Z,100.00
2022-09-24T05:56:51.647Z,100.00
2022-09-24T05:59:19.212Z,100.00
2022-09-24T06:01:46.789Z,100.00
2022-09-24T06:04:14.679Z,100.00
2022-09-24T06:06:43.415Z,100.00
2022-09-24T06:09:12.929Z,100.00
2022-09-24T06:11:42.514Z,100.00
2022-09-24T06:14:11.160Z,100.00
2022-09-24T06:16:38.763Z,100.00
2022-09-24T06:19:06.427Z,100.00
2022-09-24T06:21:34.422Z,100.00
2022-09-24T06:24:03.191Z,100.00
2022-09-24T06:26:33.933Z,100.00
2022-09-24T06:29:05.236Z,100.00
2022-09-24T06:31:34.911Z,100.00
2022-09-24T06:34:04.165Z,100.00
2022-09-24T06:36:32.912Z,100.00
2022-09-24T06:39:00.489Z,100.00
2022-09-24T06:41:28.073Z,100.00
2022-09-24T06:43:56.391Z,100.00
2022-09-24T06:46:26.396Z,100.00
2022-09-24T06:48:55.629Z,100.00
2022-09-24T06:51:23.229Z,100.00
2022-09-24T06:53:52.000Z,100.00
2022-09-24T06:56:19.536Z,100.00
2022-09-24T06:58:47.427Z,100.00
2022-09-24T07:01:15.148Z,100.00
2022-09-24T07:03:44.126Z,100.00
2022-09-24T07:06:11.679Z,100.00
2022-09-24T07:08:39.322Z,100.00
2022-09-24T07:11:07.619Z,100.00
2022-09-24T07:13:35.149Z,100.00
2022-09-24T07:16:03.261Z,100.00
2022-09-24T07:18:30.907Z,100.00
2022-09-24T07:20:59.822Z,100.00
2022-09-24T07:23:27.785Z,100.00
2022-09-24T07:25:57.330Z,100.00
2022-09-24T07:28:24.862Z,100.00
2022-09-24T07:30:58.207Z,99.66
2022-09-24T07:33:25.779Z,100.00
2022-09-24T07:35:53.440Z,99.92
2022-09-24T07:38:22.518Z,100.00
2022-09-24T07:40:50.262Z,100.00
2022-09-24T07:43:17.908Z,100.00
2022-09-24T07:45:46.355Z,100.00
2022-09-24T07:48:15.617Z,100.00
2022-09-24T07:50:43.448Z,100.00
2022-09-24T07:53:11.910Z,100.00
2022-09-24T07:55:41.616Z,100.00
2022-09-24T07:58:10.105Z,100.00
2022-09-24T08:00:37.681Z,99.42
2022-09-24T08:03:05.555Z,96.91
2022-09-24T08:05:33.863Z,95.25
2022-09-24T08:08:01.668Z,94.55
2022-09-24T08:10:29.428Z,93.94
2022-09-24T08:13:02.306Z,94.28
2022-09-24T08:15:29.866Z,94.61
2022-09-24T08:18:01.870Z,95.43
2022-09-24T08:20:29.401Z,95.76
2022-09-24T08:23:02.081Z,96.13
2022-09-24T08:25:29.760Z,96.38
2022-09-24T08:28:02.453Z,96.40
2022-09-24T08:30:30.870Z,96.35
2022-09-24T08:32:58.669Z,95.18
2022-09-24T08:35:26.280Z,95.97
2022-09-24T08:37:54.594Z,95.74
2022-09-24T08:40:25.100Z,95.46
2022-09-24T08:42:56.726Z,95.46
2022-09-24T08:45:43.347Z,95.57
2022-09-24T08:48:14.733Z,95.34
2022-09-24T08:50:47.931Z,94.89
2022-09-24T08:53:19.725Z,93.06
2022-09-24T08:55:48.454Z,93.70
2022-09-24T08:58:29.821Z,92.91
2022-09-24T09:01:13.850Z,92.79
2022-09-24T09:03:45.702Z,91.97
2022-09-24T09:06:25.139Z,90.22
2022-09-24T09:09:11.833Z,89.49
2022-09-24T09:11:41.220Z,90.15
2022-09-24T09:14:12.495Z,89.67
2022-09-24T09:16:47.730Z,88.67
2022-09-24T09:19:17.105Z,88.94
2022-09-24T09:21:46.171Z,87.77
2022-09-24T09:24:18.591Z,88.56
2022-09-24T09:26:49.600Z,90.00
2022-09-24T09:29:17.603Z,88.71
2022-09-24T09:31:56.535Z,87.09
2022-09-24T09:34:38.375Z,87.03
2022-09-24T09:37:13.079Z,86.79
2022-09-24T09:39:46.561Z,85.71
2022-09-24T09:42:24.469Z,85.72
2022-09-24T09:44:52.715Z,87.09
2022-09-24T09:47:27.573Z,85.59
2022-09-24T09:49:57.840Z,84.30
2022-09-24T09:52:28.301Z,85.18
2022-09-24T09:54:56.017Z,83.82
2022-09-24T09:57:25.318Z,84.44
2022-09-24T09:59:54.630Z,84.33
2022-09-24T10:02:28.849Z,86.11
2022-09-24T10:04:57.500Z,86.24
2022-09-24T10:07:25.388Z,85.94
2022-09-24T10:10:02.168Z,85.17
2022-09-24T10:12:30.414Z,86.65
2022-09-24T10:15:00.416Z,86.63
2022-09-24T10:17:32.884Z,87.50
2022-09-24T10:20:02.759Z,85.78
2022-09-24T10:22:30.968Z,85.67
2022-09-24T10:25:00.806Z,86.30
2022-09-24T10:27:34.271Z,85.67
2022-09-24T10:30:20.283Z,83.73
2022-09-24T10:32:57.328Z,82.69
2022-09-24T10:35:28.121Z,82.61
2022-09-24T10:37:56.832Z,83.45
2022-09-24T10:40:28.274Z,82.11
2022-09-24T10:42:57.201Z,81.03
2022-09-24T10:45:32.953Z,82.54
2022-09-24T10:48:08.700Z,80.81
2022-09-24T10:50:44.084Z,81.06
2022-09-24T10:53:15.266Z,81.87
2022-09-24T10:55:49.767Z,81.40
2022-09-24T10:58:40.336Z,81.35
2022-09-24T11:01:15.783Z,81.52
2022-09-24T11:04:18.299Z,82.37
2022-09-24T11:06:57.116Z,82.23
2022-09-24T11:09:31.445Z,80.83
2022-09-24T11:12:05.363Z,80.01
2022-09-24T11:14:46.487Z,80.11
2022-09-24T11:17:30.026Z,80.73
2022-09-24T11:20:12.711Z,81.04
2022-09-24T11:22:50.686Z,79.99
2022-09-24T11:25:32.200Z,79.21
2022-09-24T11:28:14.230Z,80.25
2022-09-24T11:30:47.839Z,79.20
2022-09-24T11:33:26.822Z,79.60
2022-09-24T11:36:05.448Z,78.56
2022-09-24T11:38:45.519Z,79.29
2022-09-24T11:41:24.430Z,79.16
2022-09-24T11:44:11.354Z,80.05
2022-09-24T11:46:49.600Z,79.48
2022-09-24T11:49:29.686Z,77.25
2022-09-24T11:52:03.303Z,76.16
2022-09-24T11:54:34.759Z,76.00
2022-09-24T11:57:07.725Z,76.19
2022-09-24T11:59:39.896Z,76.01
2022-09-24T12:02:15.510Z,76.00
2022-09-24T12:04:52.068Z,76.89
2022-09-24T12:07:26.165Z,77.56
2022-09-24T12:09:59.390Z,77.36
2022-09-24T12:12:30.252Z,76.45
2022-09-24T12:15:02.783Z,76.81
2022-09-24T12:17:36.174Z,76.68
2022-09-24T12:20:08.236Z,78.68
2022-09-24T12:22:39.303Z,79.14
2022-09-24T12:25:12.511Z,79.87
2022-09-24T12:27:40.875Z,79.12
2022-09-24T12:30:38.956Z,78.60
2022-09-24T12:33:11.272Z,77.94
2022-09-24T12:35:48.339Z,77.02
2022-09-24T12:38:20.849Z,78.66
2022-09-24T12:41:24.011Z,78.33
2022-09-24T12:43:56.679Z,78.79
2022-09-24T12:46:27.879Z,77.55
2022-09-24T12:48:56.062Z,77.42
2022-09-24T12:51:24.474Z,76.70
2022-09-24T12:54:06.228Z,75.97
2022-09-24T12:56:34.923Z,77.84
2022-09-24T12:59:05.551Z,77.33
2022-09-24T13:01:35.754Z,77.41
2022-09-24T13:04:29.248Z,76.08
2022-09-24T13:06:57.355Z,77.01
2022-09-24T13:09:34.334Z,77.56
2022-09-24T13:12:20.018Z,76.67
2022-09-24T13:14:53.550Z,77.04
2022-09-24T13:17:21.708Z,77.42
2022-09-24T13:19:51.675Z,78.60
2022-09-24T13:22:23.446Z,77.96
2022-09-24T13:24:54.525Z,78.42
2022-09-24T13:27:25.460Z,78.26
2022-09-24T13:30:04.801Z,79.11
2022-09-24T13:32:35.560Z,77.63
2022-09-24T13:35:07.934Z,78.92
2022-09-24T13:37:37.718Z,78.83
2022-09-24T13:40:09.273Z,79.00
2022-09-24T13:42:41.024Z,79.72
2022-09-24T13:45:13.428Z,80.01
2022-09-24T13:47:45.340Z,80.47
2022-09-24T13:50:18.030Z,80.03
2022-09-24T13:52:47.401Z,80.06
2022-09-24T13:55:22.083Z,80.25
2022-09-24T13:57:50.582Z,80.39
2022-09-24T14:00:20.892Z,79.94
2022-09-24T14:02:58.732Z,79.36
2022-09-24T14:05:29.207Z,79.86
2022-09-24T14:08:00.029Z,79.84
2022-09-24T14:10:29.786Z,79.94
2022-09-24T14:13:10.541Z,80.02
2022-09-24T14:15:38.520Z,80.04
2022-09-24T14:18:10.673Z,80.21
2022-09-24T14:20:40.694Z,80.19
2022-09-24T14:23:11.084Z,80.13
2022-09-24T14:25:40.471Z,80.80
2022-09-24T14:28:08.353Z,80.45
2022-09-24T14:30:37.885Z,80.66
2022-09-24T14:33:08.667Z,80.40
2022-09-24T14:35:38.378Z,79.74
2022-09-24T14:38:09.511Z,80.26
2022-09-24T14:40:43.310Z,80.11
2022-09-24T14:43:17.901Z,80.57
2022-09-24T14:45:46.988Z,80.43
2022-09-24T14:48:24.990Z,80.73
2022-09-24T14:50:52.856Z,80.90
2022-09-24T14:53:23.702Z,81.09
2022-09-24T14:55:52.811Z,80.69
2022-09-24T14:58:24.997Z,80.76
2022-09-24T15:00:56.202Z,80.52
2022-09-24T15:03:28.483Z,79.84
2022-09-24T15:06:07.267Z,80.75
2022-09-24T15:08:35.620Z,80.78
2022-09-24T15:11:06.089Z,80.93
2022-09-24T15:13:35.586Z,80.92
2022-09-24T15:16:08.941Z,81.15
2022-09-24T15:18:36.797Z,81.54
2022-09-24T15:21:08.279Z,81.87
2022-09-24T15:23:36.656Z,82.07
2022-09-24T15:26:06.238Z,82.60
2022-09-24T15:28:34.135Z,83.32
2022-09-24T15:31:01.960Z,82.76
2022-09-24T15:33:29.809Z,82.28
2022-09-24T15:35:57.717Z,82.66
2022-09-24T15:38:25.722Z,82.57
2022-09-24T15:40:53.963Z,82.47
2022-09-24T15:43:24.971Z,83.16
2022-09-24T15:45:53.040Z,83.12
2022-09-24T15:48:20.932Z,83.30
2022-09-24T15:50:50.540Z,83.72
2022-09-24T15:53:21.778Z,83.93
2022-09-24T15:55:53.205Z,84.63
2022-09-24T15:58:21.645Z,84.25
2022-09-24T16:00:51.482Z,84.83
2022-09-24T16:03:21.750Z,85.18
2022-09-24T16:05:49.891Z,84.15
2022-09-24T16:08:17.912Z,84.81
2022-09-24T16:10:47.122Z,86.00
2022-09-24T16:13:16.021Z,87.33
2022-09-24T16:15:44.243Z,87.90
2022-09-24T16:18:15.785Z,88.40
2022-09-24T16:20:45.373Z,89.32
2022-09-24T16:23:15.589Z,89.78
2022-09-24T16:25:43.817Z,90.51
2022-09-24T16:28:11.683Z,90.81
2022-09-24T16:30:39.541Z,92.00
2022-09-24T16:33:07.302Z,93.02
2022-09-24T16:35:36.196Z,83.86
2022-09-24T16:38:03.904Z,80.59
2022-09-24T16:40:32.980Z,80.40
2022-09-24T16:43:00.615Z,79.34
2022-09-24T16:45:28.532Z,80.82
2022-09-24T16:47:56.294Z,80.85
2022-09-24T16:50:24.550Z,80.62
2022-09-24T16:52:55.442Z,82.07
2022-09-24T16:55:25.223Z,83.40
2022-09-24T16:57:53.183Z,83.88
2022-09-24T17:00:21.240Z,84.44
2022-09-24T17:02:49.263Z,86.31
2022-09-24T17:05:17.335Z,87.15
2022-09-24T17:07:45.152Z,87.54
2022-09-24T17:10:13.314Z,87.93
2022-09-24T17:12:41.939Z,88.51
2022-09-24T17:15:10.270Z,89.38
2022-09-24T17:17:49.161Z,90.71
2022-09-24T17:20:18.008Z,91.63
2022-09-24T17:22:47.430Z,92.32
2022-09-24T17:25:17.381Z,92.91
2022-09-24T17:27:45.226Z,93.96
2022-09-24T17:30:14.350Z,94.53
2022-09-24T17:32:43.190Z,94.15
2022-09-24T17:35:15.046Z,93.07
2022-09-24T17:37:43.004Z,94.06
2022-09-24T17:40:11.574Z,95.09
2022-09-24T17:42:45.878Z,95.39
2022-09-24T17:45:13.768Z,93.54
2022-09-24T17:48:10.608Z,93.32
2022-09-24T17:51:16.133Z,93.66
2022-09-24T17:54:35.770Z,96.01
2022-09-24T17:57:57.564Z,97.65
2022-09-24T18:01:25.377Z,97.98
2022-09-24T18:03:54.923Z,98.44
2022-09-24T18:06:25.566Z,99.16
2022-09-24T18:08:59.053Z,98.40
2022-09-24T18:11:29.684Z,97.96
2022-09-24T18:13:59.622Z,97.99
2022-09-24T18:16:29.854Z,97.93
2022-09-24T18:18:57.895Z,98.87
2022-09-24T18:21:25.619Z,99.27
2022-09-24T18:23:53.538Z,100.00
2022-09-24T18:26:22.667Z,99.73
2022-09-24T18:28:51.770Z,99.05
2022-09-24T18:31:21.058Z,97.03
2022-09-24T18:33:51.892Z,97.79
2022-09-24T18:36:21.991Z,98.89
2022-09-24T18:38:49.779Z,98.84
2022-09-24T18:41:20.310Z,99.28
2022-09-24T18:43:47.993Z,100.00
2022-09-24T18:46:17.218Z,100.00
2022-09-24T18:48:46.900Z,100.00
2022-09-24T18:51:18.701Z,100.00
2022-09-24T18:53:46.531Z,100.00
2022-09-24T18:56:14.079Z,100.00
2022-09-24T18:58:42.160Z,100.00
2022-09-24T19:01:10.270Z,100.00
2022-09-24T19:03:39.578Z,100.00
2022-09-24T19:06:08.196Z,100.00
2022-09-24T19:08:37.036Z,100.00
2022-09-24T19:11:07.608Z,100.00
2022-09-24T19:13:35.860Z,100.00
2022-09-24T19:16:07.673Z,100.00
2022-09-24T19:18:35.884Z,100.00
2022-09-24T19:21:06.375Z,100.00
2022-09-24T19:23:38.223Z,100.00
2022-09-24T19:26:06.197Z,100.00
2022-09-24T19:28:34.533Z,100.00
2022-09-24T19:31:02.476Z,100.00
2022-09-24T19:33:30.277Z,100.00
2022-09-24T19:36:01.734Z,100.00
2022-09-24T19:38:31.579Z,100.00
2022-09-24T19:41:03.042Z,100.00
2022-09-24T19:43:33.545Z,100.00
2022-09-24T19:46:03.437Z,100.00
2022-09-24T19:48:32.468Z,100.00
2022-09-24T19:51:00.719Z,100.00
2022-09-24T19:53:29.225Z,100.00
2022-09-24T19:55:57.263Z,100.00
2022-09-24T19:58:26.567Z,100.00
2022-09-24T20:00:54.721Z,100.00
2022-09-24T20:03:22.444Z,100.00
2022-09-24T20:05:49.988Z,100.00
2022-09-24T20:08:17.533Z,100.00
2022-09-24T20:10:45.915Z,100.00
2022-09-24T20:13:13.747Z,100.00
2022-09-24T20:15:42.979Z,100.00
2022-09-24T20:18:12.620Z,100.00
2022-09-24T20:20:40.770Z,100.00
2022-09-24T20:23:10.731Z,100.00
2022-09-24T20:25:56.131Z,100.00
2022-09-24T20:28:23.703Z,100.00
2022-09-24T20:30:53.859Z,100.00
2022-09-24T20:33:21.444Z,100.00
2022-09-24T20:35:50.233Z,100.00
2022-09-24T20:38:18.668Z,100.00
2022-09-24T20:40:46.275Z,100.00
2022-09-24T20:43:13.858Z,100.00
2022-09-24T20:45:42.160Z,100.00
2022-09-24T20:48:11.319Z,100.00
2022-09-24T20:50:38.979Z,100.00
2022-09-24T20:53:06.514Z,100.00
2022-09-24T20:55:34.098Z,100.00
2022-09-24T20:58:01.646Z,100.00
2022-09-24T21:00:35.115Z,100.00
2022-09-24T21:03:15.413Z,100.00
2022-09-24T21:05:53.428Z,100.00
2022-09-24T21:08:20.964Z,100.00
2022-09-24T21:10:48.502Z,100.00
2022-09-24T21:13:16.028Z,100.00
2022-09-24T21:15:43.637Z,100.00
2022-09-24T21:18:22.820Z,100.00
2022-09-24T21:20:53.120Z,100.00
2022-09-24T21:23:21.478Z,100.00
2022-09-24T21:25:54.376Z,100.00
2022-09-24T21:28:22.548Z,100.00
2022-09-24T21:30:57.774Z,100.00
2022-09-24T21:33:25.344Z,100.00
2022-09-24T21:35:59.000Z,100.00
2022-09-24T21:38:26.592Z,100.00
2022-09-24T21:40:54.573Z,100.00
2022-09-24T21:43:23.581Z,100.00
2022-09-24T21:45:52.361Z,100.00
2022-09-24T21:48:20.010Z,100.00
2022-09-24T21:50:47.790Z,100.00
2022-09-24T21:53:16.668Z,100.00
2022-09-24T21:55:48.033Z,100.00
2022-09-24T21:58:15.697Z,100.00
2022-09-24T22:00:43.832Z,100.00
2022-09-24T22:03:13.188Z,100.00
2022-09-24T22:05:42.854Z,100.00
2022-09-24T22:08:12.918Z,100.00
2022-09-24T22:10:44.001Z,100.00
2022-09-24T22:13:14.025Z,100.00
2022-09-24T22:15:43.659Z,100.00
2022-09-24T22:18:11.680Z,100.00
2022-09-24T22:20:42.618Z,100.00
2022-09-24T22:23:10.325Z,100.00
2022-09-24T22:25:38.031Z,100.00
2022-09-24T22:28:07.097Z,100.00
2022-09-24T22:30:34.662Z,100.00
2022-09-24T22:33:02.245Z,100.00
2022-09-24T22:35:47.483Z,100.00
2022-09-24T22:38:15.676Z,100.00
2022-09-24T22:40:43.572Z,100.00
2022-09-24T22:43:12.475Z,100.00
2022-09-24T22:45:40.261Z,100.00
2022-09-24T22:48:07.904Z,100.00
2022-09-24T22:50:35.436Z,100.00
2022-09-24T22:53:02.999Z,100.00
2022-09-24T22:55:30.633Z,100.00
2022-09-24T22:57:58.217Z,100.00
2022-09-24T23:00:27.101Z,100.00
2022-09-24T23:02:54.657Z,100.00
2022-09-24T23:05:22.272Z,100.00
2022-09-24T23:07:49.827Z,100.00
2022-09-24T23:10:17.570Z,100.00
2022-09-24T23:12:45.138Z,100.00
2022-09-24T23:15:12.675Z,100.00
2022-09-24T23:17:41.554Z,100.00
2022-09-24T23:20:10.247Z,100.00
2022-09-24T23:22:37.811Z,100.00
2022-09-24T23:25:06.098Z,100.00
2022-09-24T23:27:33.725Z,100.00
2022-09-24T23:30:01.430Z,100.00
2022-09-24T23:32:29.157Z,100.00
2022-09-24T23:34:58.155Z,100.00
2022-09-24T23:37:25.797Z,100.00
2022-09-24T23:39:53.397Z,100.00
2022-09-24T23:42:20.938Z,100.00
2022-09-24T23:44:49.326Z,100.00
2022-09-24T23:47:17.164Z,100.00
2022-09-24T23:49:44.686Z,100.00
2022-09-24T23:52:13.626Z,100.00
2022-09-24T23:54:41.198Z,100.00
2022-09-24T23:57:09.255Z,100.00
2022-09-24T23:59:36.864Z,100.00
